createdAt,value
2018-11-21T00:00:17.788Z,25.93
2018-11-21T00:02:46.246Z,21.07
2018-11-21T00:05:14.477Z,26.27
2018-11-21T00:07:42.659Z,25.20
2018-11-21T00:10:12.097Z,23.90
2018-11-21T00:12:41.785Z,24.43
2018-11-21T00:15:11.144Z,23.30
2018-11-21T00:17:39.334Z,28.30
2018-11-21T00:20:08.980Z,28.50
2018-11-21T00:22:37.186Z,26.33
2018-11-21T00:25:05.492Z,25.20
2018-11-21T00:27:33.670Z,27.90
2018-11-21T00:30:01.832Z,25.47
2018-11-21T00:32:30.038Z,27.37
2018-11-21T00:34:58.272Z,23.80
2018-11-21T00:37:26.614Z,24.47
2018-11-21T00:39:55.104Z,25.40
2018-11-21T00:42:23.347Z,24.43
2018-11-21T00:44:51.535Z,27.20
2018-11-21T00:47:19.745Z,27.50
2018-11-21T00:49:47.940Z,27.60
2018-11-21T00:52:16.135Z,27.13
2018-11-21T00:54:44.808Z,28.03
2018-11-21T00:57:12.973Z,24.50
2018-11-21T00:59:41.181Z,24.50
2018-11-21T01:02:09.360Z,30.07
2018-11-21T01:04:37.557Z,29.40
2018-11-21T01:07:05.994Z,28.40
2018-11-21T01:09:34.183Z,28.20
2018-11-21T01:12:02.383Z,30.77
2018-11-21T01:14:30.621Z,27.37
2018-11-21T01:16:58.873Z,33.70
2018-11-21T01:19:27.307Z,33.63
2018-11-21T01:21:55.499Z,32.73
2018-11-21T01:24:23.703Z,31.20
2018-11-21T01:26:51.916Z,31.03
2018-11-21T01:29:20.102Z,32.40
2018-11-21T01:31:48.329Z,29.10
2018-11-21T01:34:16.575Z,32.30
2018-11-21T01:36:44.788Z,30.23
2018-11-21T01:39:12.989Z,32.07
2018-11-21T01:41:41.265Z,29.30
2018-11-21T01:44:09.541Z,32.80
2018-11-21T01:46:37.801Z,33.50
2018-11-21T01:49:06.173Z,26.43
2018-11-21T01:51:34.349Z,36.83
2018-11-21T01:54:02.536Z,29.17
2018-11-21T01:56:30.726Z,31.83
2018-11-21T01:58:58.977Z,30.90
2018-11-21T02:01:27.156Z,34.97
2018-11-21T02:03:55.358Z,35.23
2018-11-21T02:06:23.538Z,33.90
2018-11-21T02:08:51.737Z,38.57
2018-11-21T02:11:19.942Z,34.90
2018-11-21T02:13:48.151Z,35.13
2018-11-21T02:16:16.362Z,35.73
2018-11-21T02:18:44.553Z,36.87
2018-11-21T02:21:12.761Z,34.13
2018-11-21T02:23:40.934Z,33.90
2018-11-21T02:26:09.135Z,34.83
2018-11-21T02:28:37.371Z,33.30
2018-11-21T02:31:05.703Z,38.00
2018-11-21T02:33:33.902Z,36.30
2018-11-21T02:36:02.118Z,37.60
2018-11-21T02:38:30.290Z,40.40
2018-11-21T02:40:58.494Z,36.07
2018-11-21T02:43:26.653Z,32.07
2018-11-21T02:45:54.850Z,34.00
2018-11-21T02:48:23.224Z,36.20
2018-11-21T02:50:51.385Z,33.03
2018-11-21T02:53:19.589Z,34.33
2018-11-21T02:55:47.773Z,36.10
2018-11-21T02:58:15.968Z,31.93
2018-11-21T03:00:44.159Z,33.40
2018-11-21T03:03:12.514Z,34.03
2018-11-21T03:05:40.689Z,36.27
2018-11-21T03:08:08.904Z,35.27
2018-11-21T03:10:37.206Z,39.97
2018-11-21T03:13:05.953Z,36.33
2018-11-21T03:15:34.154Z,36.63
2018-11-21T03:18:02.357Z,35.67
2018-11-21T03:20:30.543Z,35.70
2018-11-21T03:22:58.742Z,38.63
2018-11-21T03:25:26.938Z,32.73
2018-11-21T03:27:55.128Z,38.83
2018-11-21T03:30:23.308Z,39.17
2018-11-21T03:32:51.491Z,35.77
2018-11-21T03:35:19.717Z,37.93
2018-11-21T03:37:47.917Z,36.47
2018-11-21T03:40:16.090Z,39.07
2018-11-21T03:42:44.329Z,32.77
2018-11-21T03:45:12.972Z,33.43
2018-11-21T03:47:41.226Z,36.53
2018-11-21T03:50:10.602Z,35.67
2018-11-21T03:52:39.080Z,33.30
2018-11-21T03:55:08.103Z,36.63
2018-11-21T03:57:36.554Z,39.33
2018-11-21T04:00:06.067Z,34.97
2018-11-21T04:02:34.236Z,40.70
2018-11-21T04:05:02.413Z,37.07
2018-11-21T04:07:30.609Z,37.40
2018-11-21T04:09:58.799Z,34.23
2018-11-21T04:12:27.022Z,32.90
2018-11-21T04:14:55.207Z,38.23
2018-11-21T04:17:23.420Z,32.27
2018-11-21T04:19:51.591Z,39.13
2018-11-21T04:22:19.850Z,37.53
2018-11-21T04:24:48.059Z,35.77
2018-11-21T04:27:16.219Z,37.00
2018-11-21T04:29:44.401Z,36.27
2018-11-21T04:32:12.562Z,31.80
2018-11-21T04:34:40.737Z,38.77
2018-11-21T04:37:08.978Z,40.90
2018-11-21T04:39:37.137Z,40.77
2018-11-21T04:42:05.376Z,40.80
2018-11-21T04:44:33.545Z,37.77
2018-11-21T04:47:02.012Z,36.87
2018-11-21T04:49:30.190Z,40.30
2018-11-21T04:51:58.405Z,39.30
2018-11-21T04:54:26.655Z,34.10
2018-11-21T04:56:54.831Z,38.90
2018-11-21T04:59:23.054Z,34.87
2018-11-21T05:01:51.240Z,39.73
2018-11-21T05:04:19.436Z,36.37
2018-11-21T05:06:47.618Z,39.47
2018-11-21T05:09:15.834Z,43.60
2018-11-21T05:11:44.019Z,36.27
2018-11-21T05:14:12.197Z,33.50
2018-11-21T05:16:40.375Z,35.77
2018-11-21T05:19:08.575Z,40.47
2018-11-21T05:21:36.766Z,38.43
2018-11-21T05:24:05.168Z,39.27
2018-11-21T05:26:33.375Z,38.73
2018-11-21T05:29:01.558Z,38.17
2018-11-21T05:31:29.756Z,39.10
2018-11-21T05:33:58.029Z,39.13
2018-11-21T05:36:26.207Z,38.80
2018-11-21T05:38:54.388Z,37.87
2018-11-21T05:41:22.597Z,44.17
2018-11-21T05:43:50.769Z,43.77
2018-11-21T05:46:19.010Z,38.90
2018-11-21T05:48:47.223Z,38.80
2018-11-21T05:51:15.402Z,35.83
2018-11-21T05:53:43.601Z,35.27
2018-11-21T05:56:11.787Z,39.60
2018-11-21T05:58:39.984Z,34.80
2018-11-21T06:01:08.163Z,37.50
2018-11-21T06:03:36.356Z,38.80
2018-11-21T06:06:09.929Z,37.67
2018-11-21T06:08:32.699Z,37.27
2018-11-21T06:11:00.933Z,41.53
2018-11-21T06:13:29.099Z,36.80
2018-11-21T06:15:57.277Z,36.37
2018-11-21T06:18:25.453Z,33.93
2018-11-21T06:20:53.852Z,36.73
2018-11-21T06:23:22.028Z,36.00
2018-11-21T06:25:50.205Z,38.47
2018-11-21T06:28:18.386Z,36.60
2018-11-21T06:30:47.039Z,36.90
2018-11-21T06:33:15.222Z,38.80
2018-11-21T06:35:43.391Z,41.83
2018-11-21T06:38:11.591Z,35.63
2018-11-21T06:40:39.901Z,36.80
2018-11-21T06:43:08.075Z,37.13
2018-11-21T06:45:36.294Z,34.37
2018-11-21T06:48:04.638Z,35.97
2018-11-21T06:50:32.848Z,39.60
2018-11-21T06:53:01.024Z,37.20
2018-11-21T06:55:29.259Z,48.93
2018-11-21T06:57:57.637Z,37.13
2018-11-21T07:00:25.845Z,35.73
2018-11-21T07:02:54.003Z,36.27
2018-11-21T07:05:22.208Z,39.13
2018-11-21T07:07:50.393Z,33.00
2018-11-21T07:10:18.555Z,39.20
2018-11-21T07:12:46.877Z,37.13
2018-11-21T07:15:15.067Z,43.23
2018-11-21T07:17:43.323Z,37.27
2018-11-21T07:20:12.621Z,36.63
2018-11-21T07:22:41.280Z,41.10
2018-11-21T07:25:15.450Z,39.33
2018-11-21T07:27:43.646Z,40.40
2018-11-21T07:30:13.430Z,30.37
2018-11-21T07:32:41.618Z,33.83
2018-11-21T07:35:10.073Z,36.50
2018-11-21T07:37:38.955Z,32.53
2018-11-21T07:40:08.892Z,36.77
2018-11-21T07:42:37.114Z,38.60
2018-11-21T07:45:07.430Z,37.77
2018-11-21T07:47:35.624Z,38.00
2018-11-21T07:50:04.913Z,32.73
2018-11-21T07:52:33.096Z,39.50
2018-11-21T07:55:01.254Z,38.30
2018-11-21T07:57:36.628Z,33.57
2018-11-21T08:01:20.448Z,45.27
2018-11-21T08:03:56.234Z,34.10
2018-11-21T08:06:49.401Z,37.03
2018-11-21T08:09:42.614Z,36.40
2018-11-21T08:12:28.892Z,35.77
2018-11-21T08:15:19.383Z,37.20
2018-11-21T08:18:07.023Z,46.00
2018-11-21T08:20:53.059Z,38.60
2018-11-21T08:23:39.201Z,34.37
2018-11-21T08:26:32.249Z,40.40
2018-11-21T08:29:00.436Z,41.80
2018-11-21T08:31:28.631Z,37.70
2018-11-21T08:33:56.799Z,42.57
2018-11-21T08:36:24.992Z,38.70
2018-11-21T08:38:53.218Z,45.93
2018-11-21T08:41:21.634Z,37.63
2018-11-21T08:43:49.852Z,45.10
2018-11-21T08:46:18.024Z,37.13
2018-11-21T08:48:46.203Z,44.97
2018-11-21T08:51:14.409Z,39.57
2018-11-21T08:53:42.610Z,43.83
2018-11-21T08:56:10.810Z,35.77
2018-11-21T08:58:38.994Z,40.17
2018-11-21T09:01:07.189Z,38.23
2018-11-21T09:03:35.378Z,40.30
2018-11-21T09:06:04.504Z,40.60
2018-11-21T09:08:31.729Z,36.43
2018-11-21T09:10:59.919Z,41.87
2018-11-21T09:13:28.103Z,41.07
2018-11-21T09:15:56.303Z,43.03
2018-11-21T09:18:24.475Z,43.43
2018-11-21T09:20:52.668Z,39.83
2018-11-21T09:23:20.872Z,43.40
2018-11-21T09:25:49.340Z,40.97
2018-11-21T09:28:17.563Z,40.80
2018-11-21T09:30:45.738Z,39.37
2018-11-21T09:33:13.909Z,39.50
2018-11-21T09:35:42.086Z,43.77
2018-11-21T09:38:10.298Z,41.33
2018-11-21T09:40:38.479Z,40.67
2018-11-21T09:43:06.670Z,39.13
2018-11-21T09:45:34.877Z,47.20
2018-11-21T09:48:03.130Z,45.60
2018-11-21T09:50:32.611Z,41.37
2018-11-21T09:53:00.799Z,41.10
2018-11-21T09:55:28.997Z,40.03
2018-11-21T09:57:57.180Z,40.20
2018-11-21T10:01:01.759Z,38.30
2018-11-21T10:03:31.831Z,41.73
2018-11-21T10:06:17.487Z,37.77
2018-11-21T10:09:03.242Z,41.30
2018-11-21T10:11:32.630Z,41.40
2018-11-21T10:14:00.792Z,41.80
2018-11-21T10:16:28.999Z,43.20
2018-11-21T10:18:58.175Z,39.90
2018-11-21T10:21:28.068Z,39.83
2018-11-21T10:23:56.268Z,35.53
2018-11-21T10:26:24.571Z,38.20
2018-11-21T10:28:53.427Z,40.90
2018-11-21T10:31:21.636Z,40.30
2018-11-21T10:33:49.964Z,40.60
2018-11-21T10:36:18.156Z,39.43
2018-11-21T10:38:46.353Z,39.60
2018-11-21T10:41:14.554Z,38.33
2018-11-21T10:43:42.697Z,39.37
2018-11-21T10:46:11.075Z,38.13
2018-11-21T10:48:39.241Z,39.33
2018-11-21T10:51:07.601Z,38.67
2018-11-21T10:53:35.792Z,40.23
2018-11-21T10:56:03.970Z,42.97
2018-11-21T10:58:32.184Z,38.90
2018-11-21T11:01:31.225Z,33.80
2018-11-21T11:04:05.309Z,39.70
2018-11-21T11:06:51.303Z,35.50
2018-11-21T11:09:53.570Z,37.87
2018-11-21T11:12:51.787Z,39.43
2018-11-21T11:15:37.865Z,45.47
2018-11-21T11:18:37.406Z,39.13
2018-11-21T11:21:23.711Z,41.83
2018-11-21T11:24:29.599Z,42.30
2018-11-21T11:27:15.494Z,41.13
2018-11-21T11:30:02.914Z,38.57
2018-11-21T11:32:53.025Z,40.13
2018-11-21T11:35:49.575Z,40.40
2018-11-21T11:38:36.928Z,39.17
2018-11-21T11:41:23.143Z,42.87
2018-11-21T11:44:25.662Z,41.43
2018-11-21T11:47:15.570Z,39.00
2018-11-21T11:49:51.815Z,36.23
2018-11-21T11:52:37.845Z,36.43
2018-11-21T11:55:25.273Z,37.33
2018-11-21T11:58:12.660Z,43.20
2018-11-21T12:00:54.954Z,38.07
2018-11-21T12:03:54.291Z,42.67
2018-11-21T12:06:53.940Z,37.77
2018-11-21T12:09:40.254Z,42.10
2018-11-21T12:12:30.448Z,38.73
2018-11-21T12:15:16.221Z,38.73
2018-11-21T12:18:18.463Z,38.80
2018-11-21T12:21:08.693Z,37.10
2018-11-21T12:23:59.924Z,36.63
2018-11-21T12:26:36.904Z,38.17
2018-11-21T12:29:14.495Z,39.13
2018-11-21T12:32:00.696Z,35.83
2018-11-21T12:35:03.378Z,36.10
2018-11-21T12:38:03.497Z,40.27
2018-11-21T12:40:45.213Z,39.57
2018-11-21T12:43:19.883Z,40.90
2018-11-21T12:46:05.522Z,44.03
2018-11-21T12:48:51.504Z,34.47
2018-11-21T12:51:38.878Z,37.67
2018-11-21T12:54:38.064Z,40.03
2018-11-21T12:57:32.078Z,40.83
2018-11-21T13:00:24.999Z,35.10
2018-11-21T13:03:24.364Z,38.43
2018-11-21T13:06:05.229Z,38.93
2018-11-21T13:09:10.840Z,39.77
2018-11-21T13:12:04.088Z,41.40
2018-11-21T13:14:57.369Z,38.20
2018-11-21T13:17:50.668Z,36.47
2018-11-21T13:20:49.754Z,39.27
2018-11-21T13:23:28.069Z,39.70
2018-11-21T13:26:13.820Z,32.93
2018-11-21T13:29:01.216Z,36.63
2018-11-21T13:31:51.102Z,34.83
2018-11-21T13:34:37.171Z,41.67
2018-11-21T13:37:27.527Z,37.90
2018-11-21T13:40:12.527Z,37.50
2018-11-21T13:42:59.913Z,36.13
2018-11-21T13:45:53.316Z,42.10
2018-11-21T13:48:40.520Z,40.47
2018-11-21T13:51:37.055Z,38.50
2018-11-21T13:54:34.184Z,36.40
2018-11-21T13:57:02.412Z,35.07
2018-11-21T13:59:30.649Z,33.33
2018-11-21T14:01:58.860Z,39.63
2018-11-21T14:04:27.052Z,41.40
2018-11-21T14:06:55.199Z,35.17
2018-11-21T14:09:23.980Z,35.47
2018-11-21T14:11:52.235Z,31.57
2018-11-21T14:14:20.629Z,34.27
2018-11-21T14:16:48.859Z,33.40
2018-11-21T14:19:17.041Z,38.57
2018-11-21T14:21:45.217Z,41.03
2018-11-21T14:24:13.422Z,33.37
2018-11-21T14:26:41.604Z,36.87
2018-11-21T14:29:09.795Z,35.57
2018-11-21T14:31:37.966Z,37.23
2018-11-21T14:34:06.138Z,38.10
2018-11-21T14:36:34.323Z,35.17
2018-11-21T14:39:02.490Z,36.63
2018-11-21T14:41:30.663Z,39.20
2018-11-21T14:43:58.842Z,34.70
2018-11-21T14:46:27.058Z,34.37
2018-11-21T14:48:55.194Z,34.33
2018-11-21T14:51:23.385Z,39.83
2018-11-21T14:53:51.663Z,38.23
2018-11-21T14:56:19.822Z,37.27
2018-11-21T14:58:48.020Z,37.00
2018-11-21T15:01:16.204Z,35.80
2018-11-21T15:03:44.360Z,36.00
2018-11-21T15:06:12.780Z,39.33
2018-11-21T15:08:41.063Z,40.07
2018-11-21T15:11:09.257Z,34.70
2018-11-21T15:13:37.644Z,41.20
2018-11-21T15:16:05.817Z,38.67
2018-11-21T15:18:34.067Z,36.80
2018-11-21T15:21:02.336Z,35.60
2018-11-21T15:23:30.540Z,38.17
2018-11-21T15:25:58.752Z,40.73
2018-11-21T15:28:27.923Z,43.33
2018-11-21T15:30:55.077Z,36.13
2018-11-21T15:33:23.271Z,39.03
2018-11-21T15:35:51.456Z,39.80
2018-11-21T15:38:19.695Z,38.00
2018-11-21T15:40:47.855Z,41.13
2018-11-21T15:43:16.044Z,40.33
2018-11-21T15:45:44.231Z,39.70
2018-11-21T15:48:12.553Z,42.80
2018-11-21T15:50:40.719Z,39.90
2018-11-21T15:53:08.932Z,42.03
2018-11-21T15:55:37.129Z,38.07
2018-11-21T15:58:05.713Z,41.53
2018-11-21T16:00:35.059Z,37.97
2018-11-21T16:03:04.648Z,41.23
2018-11-21T16:05:32.853Z,35.97
2018-11-21T16:08:03.487Z,36.50
2018-11-21T16:10:39.741Z,39.70
2018-11-21T16:13:08.222Z,35.67
2018-11-21T16:15:49.978Z,35.10
2018-11-21T16:18:19.317Z,36.77
2018-11-21T16:20:47.588Z,40.50
2018-11-21T16:23:15.729Z,37.37
2018-11-21T16:25:43.911Z,39.53
2018-11-21T16:28:12.075Z,36.17
2018-11-21T16:30:40.261Z,37.87
2018-11-21T16:33:08.423Z,37.83
2018-11-21T16:35:36.617Z,41.47
2018-11-21T16:38:04.931Z,41.10
2018-11-21T16:40:34.008Z,38.03
2018-11-21T16:43:02.198Z,37.60
2018-11-21T16:45:35.248Z,40.60
2018-11-21T16:48:03.435Z,36.30
2018-11-21T16:50:31.639Z,43.73
2018-11-21T16:52:59.818Z,41.93
2018-11-21T16:55:28.453Z,42.60
2018-11-21T16:57:57.463Z,47.63
2018-11-21T17:00:27.054Z,42.77
2018-11-21T17:02:55.445Z,36.37
2018-11-21T17:05:24.787Z,39.37
2018-11-21T17:07:52.944Z,42.87
2018-11-21T17:10:22.932Z,42.07
2018-11-21T17:12:51.416Z,41.10
2018-11-21T17:15:21.485Z,38.70
2018-11-21T17:17:49.743Z,36.90
2018-11-21T17:20:22.923Z,39.93
2018-11-21T17:22:52.725Z,41.60
2018-11-21T17:25:22.525Z,46.43
2018-11-21T17:27:50.888Z,44.57
2018-11-21T17:30:20.102Z,44.27
2018-11-21T17:32:48.508Z,46.50
2018-11-21T17:35:17.378Z,44.30
2018-11-21T17:37:45.638Z,45.57
2018-11-21T17:40:16.681Z,43.47
2018-11-21T17:42:45.078Z,43.77
2018-11-21T17:45:13.863Z,42.70
2018-11-21T17:47:42.013Z,45.50
2018-11-21T17:50:12.589Z,46.40
2018-11-21T17:52:40.785Z,45.00
2018-11-21T17:55:11.239Z,41.60
2018-11-21T17:57:39.657Z,41.67
2018-11-21T18:00:12.497Z,41.10
2018-11-21T18:02:40.926Z,46.33
2018-11-21T18:05:10.449Z,46.57
2018-11-21T18:07:38.689Z,43.10
2018-11-21T18:10:09.508Z,46.87
2018-11-21T18:12:37.712Z,41.97
2018-11-21T18:15:06.667Z,42.47
2018-11-21T18:17:34.892Z,40.00
2018-11-21T18:20:04.096Z,45.43
2018-11-21T18:22:32.297Z,46.70
2018-11-21T18:25:00.575Z,43.10
2018-11-21T18:27:28.761Z,42.83
2018-11-21T18:29:57.004Z,43.40
2018-11-21T18:32:25.184Z,42.00
2018-11-21T18:34:53.369Z,52.00
2018-11-21T18:37:21.630Z,47.67
2018-11-21T18:39:49.870Z,49.00
2018-11-21T18:42:18.077Z,53.87
2018-11-21T18:44:46.279Z,41.10
2018-11-21T18:47:14.515Z,45.90
2018-11-21T18:49:42.700Z,49.43
2018-11-21T18:52:10.886Z,46.80
2018-11-21T18:54:39.076Z,45.23
2018-11-21T18:57:50.818Z,49.87
2018-11-21T19:00:24.962Z,43.90
2018-11-21T19:02:53.267Z,44.20
2018-11-21T19:05:21.588Z,45.00
2018-11-21T19:07:49.842Z,40.13
2018-11-21T19:10:17.977Z,44.73
2018-11-21T19:12:46.151Z,47.60
2018-11-21T19:15:15.480Z,42.37
2018-11-21T19:17:43.717Z,43.03
2018-11-21T19:20:18.782Z,41.67
2018-11-21T19:22:46.973Z,43.60
2018-11-21T19:25:15.345Z,46.67
2018-11-21T19:27:43.936Z,44.33
2018-11-21T19:30:14.048Z,49.03
2018-11-21T19:32:42.722Z,47.90
2018-11-21T19:35:11.034Z,39.07
2018-11-21T19:37:39.252Z,39.47
2018-11-21T19:40:09.550Z,45.40
2018-11-21T19:42:38.025Z,42.37
2018-11-21T19:45:08.436Z,43.40
2018-11-21T19:47:36.645Z,46.30
2018-11-21T19:50:06.276Z,45.43
2018-11-21T19:52:34.477Z,43.03
2018-11-21T19:55:02.822Z,43.87
2018-11-21T19:57:31.066Z,44.87
2018-11-21T19:59:59.310Z,37.73
2018-11-21T20:02:27.534Z,46.80
2018-11-21T20:04:55.706Z,41.27
2018-11-21T20:07:23.895Z,41.37
2018-11-21T20:09:52.142Z,39.30
2018-11-21T20:12:20.349Z,43.97
2018-11-21T20:14:48.575Z,39.50
2018-11-21T20:17:16.765Z,40.70
2018-11-21T20:19:44.957Z,45.13
2018-11-21T20:22:13.178Z,52.13
2018-11-21T20:24:41.388Z,46.30
2018-11-21T20:27:09.641Z,40.30
2018-11-21T20:29:37.835Z,47.90
2018-11-21T20:32:06.078Z,51.30
2018-11-21T20:34:34.281Z,41.07
2018-11-21T20:37:02.720Z,43.17
2018-11-21T20:39:30.918Z,43.17
2018-11-21T20:41:59.113Z,47.23
2018-11-21T20:44:27.305Z,44.43
2018-11-21T20:46:55.525Z,45.03
2018-11-21T20:49:23.725Z,43.90
2018-11-21T20:51:51.896Z,43.47
2018-11-21T20:54:20.049Z,43.53
2018-11-21T20:56:48.240Z,40.00
2018-11-21T20:59:16.420Z,41.53
2018-11-21T21:01:44.637Z,44.87
2018-11-21T21:04:12.842Z,37.00
2018-11-21T21:06:41.097Z,41.20
2018-11-21T21:09:11.964Z,41.27
2018-11-21T21:11:40.326Z,42.47
2018-11-21T21:14:08.812Z,42.30
2018-11-21T21:16:37.028Z,41.83
2018-11-21T21:19:05.561Z,39.33
2018-11-21T21:21:33.797Z,45.17
2018-11-21T21:24:01.995Z,41.27
2018-11-21T21:26:30.254Z,41.03
2018-11-21T21:28:58.587Z,41.97
2018-11-21T21:31:26.814Z,40.60
2018-11-21T21:33:55.043Z,43.77
2018-11-21T21:36:23.295Z,42.70
2018-11-21T21:38:51.488Z,39.40
2018-11-21T21:41:19.701Z,39.23
